createdAt,value
2022-10-05T00:01:53.164Z,64.81
2022-10-05T00:04:24.769Z,64.54
2022-10-05T00:06:29.469Z,64.59
2022-10-05T00:08:35.718Z,64.41
2022-10-05T00:10:41.554Z,64.15
2022-10-05T00:12:49.453Z,64.52
2022-10-05T00:14:55.655Z,64.81
2022-10-05T00:16:58.223Z,64.46
2022-10-05T00:19:40.594Z,64.53
2022-10-05T00:21:42.462Z,64.78
2022-10-05T00:23:44.170Z,65.28
2022-10-05T00:25:49.698Z,65.23
2022-10-05T00:27:57.831Z,65.46
2022-10-05T00:30:10.921Z,64.95
2022-10-05T00:32:12.968Z,64.61
2022-10-05T00:34:15.875Z,65.07
2022-10-05T00:36:17.771Z,65.00
2022-10-05T00:38:19.685Z,64.86
2022-10-05T00:40:39.821Z,64.55
2022-10-05T00:43:13.726Z,64.57
2022-10-05T00:45:25.878Z,64.48
2022-10-05T00:47:43.714Z,65.03
2022-10-05T00:50:03.620Z,64.83
2022-10-05T00:52:47.076Z,64.26
2022-10-05T00:55:14.837Z,64.14
2022-10-05T00:57:39.139Z,64.28
2022-10-05T01:00:02.443Z,63.64
2022-10-05T01:02:20.271Z,63.55
2022-10-05T01:04:44.365Z,63.42
2022-10-05T01:07:07.513Z,63.33
2022-10-05T01:09:26.532Z,63.93
2022-10-05T01:11:30.734Z,63.31
2022-10-05T01:14:20.201Z,63.43
2022-10-05T01:16:31.276Z,63.55
2022-10-05T01:19:09.671Z,63.56
2022-10-05T01:21:36.978Z,63.58
2022-10-05T01:23:57.272Z,63.73
2022-10-05T01:26:33.430Z,64.23
2022-10-05T01:28:52.553Z,64.09
2022-10-05T01:31:08.194Z,63.96
2022-10-05T01:33:29.106Z,64.08
2022-10-05T01:35:45.885Z,63.82
2022-10-05T01:37:59.382Z,63.53
2022-10-05T01:40:20.704Z,63.65
2022-10-05T01:42:34.233Z,63.36
2022-10-05T01:44:55.157Z,63.43
2022-10-05T01:47:08.070Z,62.75
2022-10-05T01:49:44.069Z,62.89
2022-10-05T01:52:03.659Z,62.74
2022-10-05T01:54:20.541Z,62.60
2022-10-05T01:56:30.646Z,63.02
2022-10-05T01:59:12.828Z,63.09
2022-10-05T02:01:14.417Z,62.88
2022-10-05T02:03:25.251Z,63.58
2022-10-05T02:05:32.483Z,63.40
2022-10-05T02:07:40.015Z,63.52
2022-10-05T02:09:49.081Z,63.67
2022-10-05T02:12:07.114Z,64.03
2022-10-05T02:14:15.773Z,64.67
2022-10-05T02:16:34.116Z,64.99
2022-10-05T02:18:43.846Z,65.00
2022-10-05T02:20:48.174Z,65.07
2022-10-05T02:22:53.488Z,65.32
2022-10-05T02:24:59.536Z,65.22
2022-10-05T02:27:04.098Z,64.84
2022-10-05T02:29:15.492Z,65.00
2022-10-05T02:31:23.001Z,64.33
2022-10-05T02:33:33.155Z,64.55
2022-10-05T02:35:35.010Z,64.52
2022-10-05T02:38:07.080Z,64.61
2022-10-05T02:40:23.936Z,64.26
2022-10-05T02:42:39.139Z,63.98
2022-10-05T02:44:43.465Z,63.66
2022-10-05T02:46:57.128Z,63.83
2022-10-05T02:49:28.805Z,63.71
2022-10-05T02:51:51.179Z,63.52
2022-10-05T02:54:11.034Z,63.15
2022-10-05T02:56:35.209Z,63.31
2022-10-05T02:59:10.201Z,62.57
2022-10-05T03:01:26.990Z,62.79
2022-10-05T03:03:39.389Z,62.65
2022-10-05T03:05:58.536Z,62.68
2022-10-05T03:08:22.426Z,62.70
2022-10-05T03:10:55.898Z,63.12
2022-10-05T03:13:21.402Z,62.68
2022-10-05T03:15:54.130Z,62.32
2022-10-05T03:18:14.068Z,62.29
2022-10-05T03:20:27.449Z,62.81
2022-10-05T03:22:40.997Z,62.73
2022-10-05T03:25:02.429Z,63.00
2022-10-05T03:27:17.454Z,62.65
2022-10-05T03:29:31.084Z,62.91
2022-10-05T03:31:46.513Z,62.88
2022-10-05T03:34:15.462Z,63.25
2022-10-05T03:36:33.114Z,63.15
2022-10-05T03:38:48.377Z,62.93
2022-10-05T03:41:17.943Z,63.22
2022-10-05T03:43:19.563Z,62.52
2022-10-05T03:45:30.763Z,62.03
2022-10-05T03:48:13.289Z,61.84
2022-10-05T03:50:42.548Z,61.55
2022-10-05T03:53:00.015Z,61.51
2022-10-05T03:55:05.708Z,61.85
2022-10-05T03:57:13.453Z,61.96
2022-10-05T03:59:20.839Z,61.73
2022-10-05T04:01:38.475Z,61.38
2022-10-05T04:03:46.200Z,61.60
2022-10-05T04:05:53.287Z,61.60
2022-10-05T04:08:15.679Z,61.63
2022-10-05T04:10:22.210Z,61.51
2022-10-05T04:12:38.632Z,61.26
2022-10-05T04:14:48.960Z,61.25
2022-10-05T04:16:58.362Z,61.51
2022-10-05T04:19:04.025Z,61.34
2022-10-05T04:21:38.269Z,61.39
2022-10-05T04:23:44.718Z,61.72
2022-10-05T04:25:54.115Z,62.19
2022-10-05T04:28:11.513Z,61.94
2022-10-05T04:30:15.693Z,62.16
2022-10-05T04:32:26.721Z,62.41
2022-10-05T04:34:48.802Z,62.90
2022-10-05T04:37:01.835Z,62.55
2022-10-05T04:39:20.960Z,62.53
2022-10-05T04:41:53.517Z,62.58
2022-10-05T04:43:57.964Z,62.79
2022-10-05T04:46:21.410Z,63.37
2022-10-05T04:48:47.514Z,63.92
2022-10-05T04:51:19.296Z,63.63
2022-10-05T04:53:31.570Z,63.69
2022-10-05T04:56:05.678Z,63.66
2022-10-05T04:58:30.413Z,64.15
2022-10-05T05:00:45.777Z,64.05
2022-10-05T05:03:08.686Z,64.34
2022-10-05T05:05:22.691Z,64.54
2022-10-05T05:07:39.584Z,64.32
2022-10-05T05:10:05.551Z,64.34
2022-10-05T05:12:24.219Z,65.05
2022-10-05T05:14:57.434Z,64.94
2022-10-05T05:17:33.265Z,65.13
2022-10-05T05:20:19.808Z,64.83
2022-10-05T05:22:44.377Z,64.90
2022-10-05T05:25:19.370Z,65.42
2022-10-05T05:27:38.700Z,65.41
2022-10-05T05:29:46.192Z,66.01
2022-10-05T05:32:07.546Z,65.99
2022-10-05T05:34:27.682Z,65.89
2022-10-05T05:36:38.415Z,65.94
2022-10-05T05:38:54.905Z,65.49
2022-10-05T05:41:15.330Z,65.93
2022-10-05T05:43:33.647Z,65.71
2022-10-05T05:45:42.695Z,65.66
2022-10-05T05:47:52.163Z,65.64
2022-10-05T05:50:30.455Z,66.47
2022-10-05T05:52:41.829Z,66.15
2022-10-05T05:54:54.942Z,66.41
2022-10-05T05:57:30.117Z,66.37
2022-10-05T06:00:11.293Z,66.98
2022-10-05T06:02:25.777Z,66.87
2022-10-05T06:04:33.170Z,66.92
2022-10-05T06:06:40.251Z,66.99
2022-10-05T06:08:50.065Z,66.83
2022-10-05T06:11:17.860Z,66.95
2022-10-05T06:13:35.904Z,66.37
2022-10-05T06:15:52.517Z,66.33
2022-10-05T06:17:57.945Z,66.33
2022-10-05T06:20:05.473Z,66.82
2022-10-05T06:22:22.788Z,66.66
2022-10-05T06:24:38.224Z,66.22
2022-10-05T06:27:04.804Z,66.26
2022-10-05T06:29:14.045Z,66.31
2022-10-05T06:31:23.478Z,66.33
2022-10-05T06:33:46.451Z,66.22
2022-10-05T06:36:03.406Z,66.09
2022-10-05T06:38:36.115Z,66.62
2022-10-05T06:40:56.122Z,66.55
2022-10-05T06:43:19.819Z,66.68
2022-10-05T06:45:40.913Z,66.53
2022-10-05T06:47:49.246Z,66.69
2022-10-05T06:50:52.827Z,66.27
2022-10-05T06:53:32.922Z,66.06
2022-10-05T06:56:11.659Z,65.60
2022-10-05T06:58:43.576Z,65.34
2022-10-05T07:01:11.388Z,65.40
2022-10-05T07:03:28.117Z,64.51
2022-10-05T07:05:53.108Z,64.31
2022-10-05T07:08:06.557Z,63.77
2022-10-05T07:10:14.922Z,63.00
2022-10-05T07:12:43.830Z,63.11
2022-10-05T07:15:19.162Z,62.45
2022-10-05T07:18:09.242Z,62.10
2022-10-05T07:20:13.956Z,61.96
2022-10-05T07:22:34.691Z,61.73
2022-10-05T07:24:44.182Z,61.51
2022-10-05T07:26:51.452Z,61.08
2022-10-05T07:29:08.061Z,61.38
2022-10-05T07:31:19.786Z,61.21
2022-10-05T07:33:40.495Z,60.68
2022-10-05T07:36:54.397Z,60.56
2022-10-05T07:39:06.192Z,60.76
2022-10-05T07:41:43.650Z,60.64
2022-10-05T07:44:07.752Z,60.27
2022-10-05T07:46:26.995Z,60.26
2022-10-05T07:48:43.444Z,60.15
2022-10-05T07:51:10.227Z,59.85
2022-10-05T07:53:18.797Z,60.10
2022-10-05T07:55:23.233Z,59.86
2022-10-05T07:57:53.038Z,60.28
2022-10-05T08:00:02.542Z,60.46
2022-10-05T08:02:26.871Z,60.36
2022-10-05T08:04:39.348Z,60.53
2022-10-05T08:07:01.896Z,61.00
2022-10-05T08:09:18.699Z,61.04
2022-10-05T08:11:31.193Z,61.32
2022-10-05T08:14:20.798Z,61.66
2022-10-05T08:16:26.624Z,61.40
2022-10-05T08:18:49.137Z,61.40
2022-10-05T08:20:56.801Z,61.26
2022-10-05T08:23:05.095Z,61.48
2022-10-05T08:25:24.724Z,61.25
2022-10-05T08:27:46.905Z,61.28
2022-10-05T08:29:54.663Z,61.24
2022-10-05T08:32:01.888Z,61.31
2022-10-05T08:34:40.832Z,61.43
2022-10-05T08:37:07.081Z,61.37
2022-10-05T08:39:17.269Z,61.33
2022-10-05T08:41:31.225Z,61.92
2022-10-05T08:44:17.396Z,61.91
2022-10-05T08:47:07.189Z,62.02
2022-10-05T08:49:46.787Z,62.19
2022-10-05T08:52:29.023Z,62.18
2022-10-05T08:54:36.730Z,62.16
2022-10-05T08:56:43.437Z,61.89
2022-10-05T08:59:04.426Z,61.97
2022-10-05T09:01:18.689Z,62.18
2022-10-05T09:03:48.307Z,62.07
2022-10-05T09:06:04.896Z,61.74
2022-10-05T09:08:24.623Z,61.84
2022-10-05T09:10:38.272Z,61.82
2022-10-05T09:13:17.552Z,61.78
2022-10-05T09:15:43.247Z,61.96
2022-10-05T09:18:12.625Z,61.73
2022-10-05T09:20:41.603Z,62.06
2022-10-05T09:23:06.448Z,61.94
2022-10-05T09:25:28.091Z,61.55
2022-10-05T09:27:48.608Z,61.79
2022-10-05T09:30:18.300Z,61.35
2022-10-05T09:32:30.407Z,61.42
2022-10-05T09:34:55.740Z,61.43
2022-10-05T09:37:45.192Z,61.11
2022-10-05T09:40:02.653Z,61.38
2022-10-05T09:42:33.979Z,61.12
2022-10-05T09:44:45.700Z,60.82
2022-10-05T09:47:02.206Z,60.81
2022-10-05T09:49:19.096Z,60.68
2022-10-05T09:51:31.219Z,60.62
2022-10-05T09:53:45.190Z,60.09
2022-10-05T09:56:21.243Z,60.09
2022-10-05T09:58:52.717Z,59.97
2022-10-05T10:01:36.372Z,60.03
2022-10-05T10:04:24.781Z,60.51
2022-10-05T10:06:48.196Z,60.21
2022-10-05T10:09:07.754Z,60.23
2022-10-05T10:11:34.068Z,60.05
2022-10-05T10:14:17.617Z,59.89
2022-10-05T10:16:50.299Z,59.68
2022-10-05T10:19:08.626Z,59.67
2022-10-05T10:21:34.781Z,59.72
2022-10-05T10:23:48.559Z,59.99
2022-10-05T10:25:59.719Z,59.70
2022-10-05T10:28:34.578Z,59.46
2022-10-05T10:31:00.737Z,59.43
2022-10-05T10:33:25.427Z,59.94
2022-10-05T10:35:36.146Z,59.70
2022-10-05T10:37:53.041Z,59.33
2022-10-05T10:40:34.958Z,59.58
2022-10-05T10:42:46.459Z,59.50
2022-10-05T10:45:17.023Z,59.33
2022-10-05T10:47:50.558Z,59.48
2022-10-05T10:49:58.163Z,59.24
2022-10-05T10:52:09.557Z,59.32
2022-10-05T10:54:34.799Z,59.63
2022-10-05T10:57:04.136Z,59.51
2022-10-05T10:59:30.704Z,59.27
2022-10-05T11:01:55.036Z,59.23
2022-10-05T11:04:11.868Z,59.15
2022-10-05T11:07:05.681Z,59.44
2022-10-05T11:09:48.526Z,59.65
2022-10-05T11:12:44.775Z,59.76
2022-10-05T11:14:52.473Z,60.01
2022-10-05T11:17:18.682Z,59.88
2022-10-05T11:19:40.769Z,60.08
2022-10-05T11:22:28.337Z,60.32
2022-10-05T11:24:48.663Z,60.60
2022-10-05T11:27:00.728Z,60.39
2022-10-05T11:29:11.156Z,61.17
2022-10-05T11:31:31.219Z,60.66
2022-10-05T11:33:38.568Z,60.49
2022-10-05T11:36:17.696Z,61.41
2022-10-05T11:38:36.941Z,61.93
2022-10-05T11:40:47.735Z,62.73
2022-10-05T11:43:14.789Z,63.20
2022-10-05T11:45:21.829Z,63.02
2022-10-05T11:47:30.195Z,63.06
2022-10-05T11:49:40.661Z,63.64
2022-10-05T11:51:59.262Z,64.15
2022-10-05T11:54:05.092Z,65.35
2022-10-05T11:56:34.623Z,65.24
2022-10-05T11:58:54.294Z,65.87
2022-10-05T12:01:14.906Z,66.52
2022-10-05T12:03:36.370Z,66.33
2022-10-05T12:06:06.036Z,66.71
2022-10-05T12:08:14.110Z,67.16
2022-10-05T12:10:38.761Z,67.83
2022-10-05T12:13:03.293Z,68.01
2022-10-05T12:15:25.744Z,68.81
2022-10-05T12:17:45.070Z,69.80
2022-10-05T12:20:17.052Z,71.21
2022-10-05T12:22:34.144Z,72.64
2022-10-05T12:24:35.809Z,72.72
2022-10-05T12:26:47.523Z,73.91
2022-10-05T12:29:13.264Z,74.93
2022-10-05T12:31:20.427Z,75.06
2022-10-05T12:33:48.475Z,75.33
2022-10-05T12:35:57.116Z,75.68
2022-10-05T12:38:03.333Z,76.31
2022-10-05T12:40:11.611Z,77.55
2022-10-05T12:42:40.838Z,77.90
2022-10-05T12:45:12.363Z,77.57
2022-10-05T12:47:25.102Z,78.21
2022-10-05T12:49:33.627Z,78.97
2022-10-05T12:51:56.075Z,79.54
2022-10-05T12:54:24.826Z,79.62
2022-10-05T12:57:07.051Z,79.86
2022-10-05T12:59:19.749Z,80.53
2022-10-05T13:01:30.095Z,79.80
2022-10-05T13:03:39.746Z,80.10
2022-10-05T13:05:41.418Z,79.98
2022-10-05T13:07:59.113Z,80.38
2022-10-05T13:10:03.904Z,79.99
2022-10-05T13:12:28.352Z,80.70
2022-10-05T13:14:51.044Z,80.25
2022-10-05T13:17:04.692Z,80.05
2022-10-05T13:19:19.595Z,80.20
2022-10-05T13:21:28.661Z,80.10
2022-10-05T13:23:49.494Z,80.22
2022-10-05T13:26:09.724Z,79.89
2022-10-05T13:28:12.093Z,80.38
2022-10-05T13:30:20.173Z,81.02
2022-10-05T13:32:38.870Z,81.55
2022-10-05T13:35:40.942Z,82.38
2022-10-05T13:38:01.884Z,82.63
2022-10-05T13:40:13.244Z,83.78
2022-10-05T13:42:54.605Z,82.77
2022-10-05T13:45:12.843Z,80.82
2022-10-05T13:47:24.958Z,79.46
2022-10-05T13:49:49.856Z,79.03
2022-10-05T13:52:33.020Z,78.16
2022-10-05T13:54:50.995Z,76.79
2022-10-05T13:56:57.175Z,76.92
2022-10-05T13:59:17.345Z,76.52
2022-10-05T14:01:28.694Z,76.08
2022-10-05T14:03:38.898Z,75.96
2022-10-05T14:05:55.901Z,75.20
2022-10-05T14:08:16.759Z,75.23
2022-10-05T14:10:38.450Z,73.87
2022-10-05T14:12:43.347Z,74.16
2022-10-05T14:14:50.670Z,74.79
2022-10-05T14:16:58.782Z,74.00
2022-10-05T14:19:29.777Z,73.42
2022-10-05T14:21:47.751Z,73.56
2022-10-05T14:23:53.701Z,74.17
2022-10-05T14:25:56.134Z,74.61
2022-10-05T14:28:25.551Z,73.41
2022-10-05T14:30:29.802Z,73.41
2022-10-05T14:32:44.360Z,73.41
2022-10-05T14:34:59.170Z,73.22
2022-10-05T14:37:27.632Z,73.52
2022-10-05T14:39:33.688Z,72.25
2022-10-05T14:41:37.663Z,73.33
2022-10-05T14:43:50.305Z,72.58
2022-10-05T14:45:57.014Z,72.54
2022-10-05T14:48:01.844Z,72.16
2022-10-05T14:50:25.484Z,71.98
2022-10-05T14:52:32.975Z,72.17
2022-10-05T14:54:58.091Z,70.93
2022-10-05T14:57:25.294Z,71.37
2022-10-05T14:59:56.134Z,70.87
2022-10-05T15:02:42.386Z,69.82
2022-10-05T15:05:01.769Z,70.06
2022-10-05T15:07:04.178Z,69.45
2022-10-05T15:09:24.694Z,69.46
2022-10-05T15:11:57.321Z,69.17
2022-10-05T15:14:00.650Z,69.23
2022-10-05T15:16:17.119Z,69.02
2022-10-05T15:18:28.299Z,68.99
2022-10-05T15:20:45.182Z,67.85
2022-10-05T15:23:05.191Z,67.46
2022-10-05T15:25:13.203Z,67.50
2022-10-05T15:27:44.984Z,65.27
2022-10-05T15:30:04.726Z,65.01
2022-10-05T15:32:18.363Z,63.08
2022-10-05T15:35:05.037Z,62.95
2022-10-05T15:37:08.019Z,63.32
2022-10-05T15:39:27.928Z,63.05
2022-10-05T15:41:55.309Z,62.85
2022-10-05T15:44:06.643Z,62.53
2022-10-05T15:46:15.383Z,61.45
2022-10-05T15:48:24.482Z,59.25
2022-10-05T15:50:29.922Z,58.32
2022-10-05T15:52:55.402Z,58.04
2022-10-05T15:55:27.939Z,57.84
2022-10-05T15:57:38.628Z,57.81
2022-10-05T16:00:02.163Z,58.00
2022-10-05T16:02:29.565Z,57.69
2022-10-05T16:05:40.537Z,57.81
2022-10-05T16:08:11.567Z,57.65
2022-10-05T16:10:16.618Z,56.65
2022-10-05T16:12:29.956Z,57.62
2022-10-05T16:14:31.623Z,57.31
2022-10-05T16:16:38.366Z,57.88
2022-10-05T16:18:55.084Z,57.86
2022-10-05T16:21:22.971Z,58.18
2022-10-05T16:23:57.878Z,58.72
2022-10-05T16:26:09.740Z,58.31
2022-10-05T16:28:49.958Z,58.55
2022-10-05T16:30:58.850Z,58.15
2022-10-05T16:33:24.022Z,59.14
2022-10-05T16:36:08.797Z,59.15
2022-10-05T16:38:16.556Z,59.13
2022-10-05T16:40:45.366Z,59.37
2022-10-05T16:43:14.942Z,59.22
2022-10-05T16:45:45.459Z,59.07
2022-10-05T16:48:09.143Z,58.95
2022-10-05T16:50:33.405Z,59.31
2022-10-05T16:52:40.205Z,58.89
2022-10-05T16:54:48.992Z,59.48
2022-10-05T16:57:04.496Z,59.34
2022-10-05T16:59:44.380Z,59.29
2022-10-05T17:02:23.778Z,59.33
2022-10-05T17:05:01.786Z,59.26
2022-10-05T17:07:09.428Z,59.34
2022-10-05T17:09:35.163Z,59.38
2022-10-05T17:11:58.139Z,59.37
2022-10-05T17:14:35.375Z,59.31
2022-10-05T17:16:45.908Z,58.93
2022-10-05T17:19:38.595Z,58.50
2022-10-05T17:21:45.945Z,58.01
2022-10-05T17:23:56.361Z,57.79
2022-10-05T17:26:07.139Z,57.96
2022-10-05T17:28:11.875Z,57.57
2022-10-05T17:30:22.212Z,56.80
2022-10-05T17:32:39.651Z,56.85
2022-10-05T17:35:00.554Z,56.66
2022-10-05T17:37:17.502Z,56.83
2022-10-05T17:39:22.719Z,55.78
2022-10-05T17:41:24.477Z,55.65
2022-10-05T17:43:28.415Z,56.30
2022-10-05T17:45:30.112Z,56.00
2022-10-05T17:47:56.524Z,55.82
2022-10-05T17:50:18.147Z,56.11
2022-10-05T17:52:45.144Z,56.00
2022-10-05T17:55:21.792Z,56.63
2022-10-05T17:57:27.919Z,56.69
2022-10-05T17:59:53.748Z,56.98
2022-10-05T18:02:38.620Z,57.00
2022-10-05T18:04:42.382Z,56.60
2022-10-05T18:07:00.367Z,56.83
2022-10-05T18:09:22.764Z,55.36
2022-10-05T18:11:38.370Z,54.86
2022-10-05T18:13:50.256Z,54.87
2022-10-05T18:15:52.024Z,55.11
2022-10-05T18:17:59.548Z,55.27
2022-10-05T18:20:13.593Z,55.02
2022-10-05T18:22:20.996Z,55.42
2022-10-05T18:24:33.338Z,54.48
2022-10-05T18:27:00.488Z,54.60
2022-10-05T18:30:01.198Z,54.16
2022-10-05T18:32:25.979Z,54.52
2022-10-05T18:34:37.685Z,54.43
2022-10-05T18:36:48.305Z,52.72
2022-10-05T18:38:58.904Z,51.95
2022-10-05T18:41:09.162Z,52.42
2022-10-05T18:43:29.426Z,51.89
2022-10-05T18:46:09.540Z,51.44
2022-10-05T18:48:35.805Z,52.23
2022-10-05T18:50:40.129Z,51.51
2022-10-05T18:52:49.820Z,52.15
2022-10-05T18:55:10.824Z,52.35
2022-10-05T18:57:34.410Z,51.98
2022-10-05T19:00:14.356Z,51.52
2022-10-05T19:02:40.505Z,51.37
2022-10-05T19:05:00.138Z,52.05
2022-10-05T19:07:19.792Z,51.84
2022-10-05T19:09:30.209Z,52.78
2022-10-05T19:11:43.195Z,52.92
2022-10-05T19:13:57.382Z,53.33
2022-10-05T19:16:22.650Z,53.01
2022-10-05T19:18:46.133Z,53.73
2022-10-05T19:21:24.714Z,54.04
2022-10-05T19:23:38.749Z,54.42
2022-10-05T19:25:48.348Z,55.51
2022-10-05T19:27:58.465Z,55.18
2022-10-05T19:30:21.104Z,55.63
2022-10-05T19:32:50.514Z,55.57
2022-10-05T19:35:30.295Z,55.55
2022-10-05T19:38:00.810Z,55.64
2022-10-05T19:40:28.438Z,56.16
2022-10-05T19:42:42.538Z,55.90
2022-10-05T19:44:56.198Z,55.85
2022-10-05T19:47:08.589Z,55.72
2022-10-05T19:49:10.897Z,56.09
2022-10-05T19:51:28.567Z,56.26
2022-10-05T19:53:37.170Z,56.29
2022-10-05T19:55:44.607Z,56.19
2022-10-05T19:57:48.928Z,56.24
2022-10-05T19:59:57.004Z,56.24
2022-10-05T20:02:00.387Z,56.44
2022-10-05T20:04:02.759Z,56.33
2022-10-05T20:06:08.642Z,56.43
2022-10-05T20:08:24.167Z,56.43
2022-10-05T20:10:29.424Z,56.24
2022-10-05T20:13:20.266Z,56.33
2022-10-05T20:15:46.052Z,57.04
2022-10-05T20:18:06.929Z,57.30
2022-10-05T20:20:30.887Z,57.14
2022-10-05T20:22:35.587Z,57.66
2022-10-05T20:24:50.946Z,57.63
2022-10-05T20:27:07.235Z,57.69
2022-10-05T20:29:09.331Z,57.78
2022-10-05T20:31:10.993Z,57.77
2022-10-05T20:33:14.753Z,57.63
2022-10-05T20:35:18.192Z,57.77
2022-10-05T20:37:20.226Z,57.74
2022-10-05T20:39:21.892Z,57.90
2022-10-05T20:41:23.533Z,57.77
2022-10-05T20:43:25.125Z,57.40
2022-10-05T20:45:26.741Z,57.49
2022-10-05T20:47:28.512Z,57.75
2022-10-05T20:49:35.198Z,58.02
2022-10-05T20:51:40.317Z,58.39
2022-10-05T20:53:41.976Z,57.91
2022-10-05T20:55:43.608Z,57.60
2022-10-05T20:57:46.211Z,57.98
2022-10-05T20:59:48.076Z,57.81
2022-10-05T21:01:49.903Z,57.77
2022-10-05T21:03:51.607Z,58.40
2022-10-05T21:05:53.480Z,58.48
2022-10-05T21:07:55.102Z,58.22
2022-10-05T21:09:56.716Z,58.23
2022-10-05T21:11:58.882Z,58.24
2022-10-05T21:14:05.417Z,58.29
2022-10-05T21:16:08.855Z,58.14
2022-10-05T21:18:10.523Z,58.41
2022-10-05T21:20:12.424Z,57.99
2022-10-05T21:22:18.973Z,58.23
2022-10-05T21:24:20.616Z,58.48
2022-10-05T21:26:22.393Z,57.88
2022-10-05T21:28:24.123Z,58.17
2022-10-05T21:30:25.955Z,57.57
2022-10-05T21:32:27.583Z,57.28
2022-10-05T21:34:29.552Z,56.94
2022-10-05T21:36:32.544Z,57.30
2022-10-05T21:38:34.253Z,57.11
2022-10-05T21:40:35.915Z,57.01
2022-10-05T21:42:37.786Z,56.53
2022-10-05T21:44:39.394Z,56.52
2022-10-05T21:46:41.279Z,56.58
2022-10-05T21:48:43.874Z,56.67
2022-10-05T21:50:46.254Z,56.62
2022-10-05T21:52:48.227Z,56.58
2022-10-05T21:54:49.917Z,56.32
2022-10-05T21:56:55.621Z,56.33
2022-10-05T21:58:57.759Z,56.46
2022-10-05T22:00:59.542Z,56.28
2022-10-05T22:03:01.381Z,56.37
2022-10-05T22:05:03.691Z,56.49
2022-10-05T22:07:19.344Z,55.95
2022-10-05T22:09:21.305Z,56.17
2022-10-05T22:11:22.968Z,56.12
2022-10-05T22:13:26.083Z,55.87
2022-10-05T22:15:29.066Z,56.33
2022-10-05T22:17:31.394Z,56.18
2022-10-05T22:19:33.102Z,56.34
2022-10-05T22:21:41.566Z,56.07
2022-10-05T22:23:45.453Z,56.14
2022-10-05T22:25:48.219Z,56.23
2022-10-05T22:27:50.193Z,55.99
2022-10-05T22:29:52.032Z,55.98
2022-10-05T22:31:56.291Z,55.90
2022-10-05T22:33:58.030Z,56.21
2022-10-05T22:36:00.366Z,56.42
2022-10-05T22:38:05.314Z,56.71
2022-10-05T22:40:08.276Z,56.58
2022-10-05T22:42:10.320Z,56.19
2022-10-05T22:44:12.065Z,56.34
2022-10-05T22:46:13.845Z,56.76
2022-10-05T22:48:40.573Z,56.98
2022-10-05T22:50:57.017Z,56.62
2022-10-05T22:53:21.909Z,56.97
2022-10-05T22:55:34.193Z,56.79
2022-10-05T22:57:43.126Z,56.81
2022-10-05T22:59:45.024Z,56.74
2022-10-05T23:01:46.761Z,57.10
2022-10-05T23:03:48.499Z,57.02
2022-10-05T23:06:00.241Z,56.96
2022-10-05T23:08:02.665Z,56.69
2022-10-05T23:10:09.673Z,57.05
2022-10-05T23:12:12.444Z,57.26
2022-10-05T23:14:14.093Z,57.34
2022-10-05T23:16:18.318Z,57.41
2022-10-05T23:18:20.066Z,57.66
2022-10-05T23:20:22.785Z,57.43
2022-10-05T23:22:25.459Z,57.57
2022-10-05T23:24:27.101Z,57.47
2022-10-05T23:26:28.926Z,57.14
2022-10-05T23:28:31.200Z,57.12
2022-10-05T23:30:33.279Z,57.17
2022-10-05T23:32:43.123Z,57.47
2022-10-05T23:34:44.766Z,57.77
2022-10-05T23:36:46.372Z,57.54
2022-10-05T23:38:48.110Z,57.76
2022-10-05T23:40:49.703Z,57.94
2022-10-05T23:42:51.607Z,58.22
2022-10-05T23:44:53.241Z,58.31
2022-10-05T23:46:56.211Z,58.17
2022-10-05T23:48:57.885Z,58.36
2022-10-05T23:51:00.326Z,58.27
2022-10-05T23:53:01.987Z,59.10
2022-10-05T23:55:05.096Z,59.08
2022-10-05T23:57:06.748Z,58.95
2022-10-05T23:59:08.461Z,58.98
